Time;durP1;ratioP1;P1;durP2;ratioP2;P2;SDS_P1;SDS_P2;PMS_P1;PMS_P2;Temp;Humidity;BMP_temperature;BMP_pressure;BME280_temperature;BME280_humidity;BME280_pressure;Samples;Min_cycle;Max_cycle;Signal;HPM_P1;HPM_P2
2024/02/29 00:00:51;;;;;;;;;;;;;;;8.91;86.47;100002.59;5118039;28;19931;-68
2024/02/29 00:03:19;;;;;;;;;;;;;;;8.90;86.86;100000.03;5117713;28;19923;-69
2024/02/29 00:05:48;;;;;;;;;;;;;;;8.86;86.37;99994.06;5117169;28;19988;-68
2024/02/29 00:08:16;;;;;;;;;;;;;;;8.84;86.65;99995.72;5117673;28;19946;-68
2024/02/29 00:10:45;;;;;;;;;;;;;;;8.82;86.85;99999.94;5117629;28;19924;-68
2024/02/29 00:13:13;;;;;;;;;;;;;;;8.81;86.75;99995.69;5117828;28;20380;-68
2024/02/29 00:15:42;;;;;;;;;;;;;;;8.80;86.77;99996.53;5117306;28;20022;-68
2024/02/29 00:18:12;;;;;;;;;;;;;;;8.80;87.50;99993.13;5117173;28;19977;-68
2024/02/29 00:20:41;;;;;;;;;;;;;;;8.82;86.94;99992.31;5117383;28;20389;-68
2024/02/29 00:23:09;;;;;;;;;;;;;;;8.80;87.17;99990.59;5117321;28;20018;-68
2024/02/29 00:25:38;;;;;;;;;;;;;;;8.75;86.56;99990.53;5116924;28;19924;-68
2024/02/29 00:28:06;;;;;;;;;;;;;;;8.74;87.14;99991.38;5116019;28;19924;-68
2024/02/29 00:30:35;;;;;;;;;;;;;;;8.70;86.48;99992.19;5116037;28;19923;-68
2024/02/29 00:33:04;;;;;;;;;;;;;;;8.65;86.76;99999.75;5117172;28;19924;-67
2024/02/29 00:35:34;;;;;;;;;;;;;;;8.59;86.40;99993.75;5115654;28;19924;-68
2024/02/29 00:38:01;;;;;;;;;;;;;;;8.57;87.33;99997.94;5115820;28;20285;-68
2024/02/29 00:40:30;;;;;;;;;;;;;;;8.49;87.10;99999.56;5117280;28;20374;-68
2024/02/29 00:42:58;;;;;;;;;;;;;;;8.43;86.46;99996.91;5116909;28;20372;-68
2024/02/29 00:45:27;;;;;;;;;;;;;;;8.40;85.99;99996.88;5115596;28;19924;-68
2024/02/29 00:47:56;;;;;;;;;;;;;;;8.37;87.29;100004.47;5115616;28;19924;-68
2024/02/29 00:50:24;;;;;;;;;;;;;;;8.32;86.30;100003.56;5117006;28;20292;-68
2024/02/29 00:52:54;;;;;;;;;;;;;;;8.32;87.48;100003.56;5115801;28;19924;-68
2024/02/29 00:55:22;;;;;;;;;;;;;;;8.25;87.11;100005.16;5116770;28;19924;-68
2024/02/29 00:57:51;;;;;;;;;;;;;;;8.19;86.63;100001.63;5116337;28;20362;-68
2024/02/29 01:00:20;;;;;;;;;;;;;;;8.17;86.43;99998.22;5115429;28;19924;-67
2024/02/29 01:02:48;;;;;;;;;;;;;;;8.11;87.13;99994.75;5116221;28;20275;-68
2024/02/29 01:05:17;;;;;;;;;;;;;;;8.07;86.45;100000.66;5116180;28;19973;-68
2024/02/29 01:07:45;;;;;;;;;;;;;;;8.06;86.86;99991.31;5116445;28;20014;-68
2024/02/29 01:10:15;;;;;;;;;;;;;;;8.02;86.90;99987.00;5116757;28;20357;-68
2024/02/29 01:12:44;;;;;;;;;;;;;;;7.94;87.24;99991.13;5116980;28;19923;-68
2024/02/29 01:15:13;;;;;;;;;;;;;;;7.84;86.77;99984.22;5116321;28;19970;-68
2024/02/29 01:17:42;;;;;;;;;;;;;;;7.80;86.73;99982.44;5115948;28;19924;-67
2024/02/29 01:20:10;;;;;;;;;;;;;;;7.77;87.44;99982.44;5116167;28;19930;-68
2024/02/29 01:22:39;;;;;;;;;;;;;;;7.76;86.72;99987.47;5116110;28;19927;-68
2024/02/29 01:25:08;;;;;;;;;;;;;;;7.73;87.75;99980.66;5115561;28;19930;-68
2024/02/29 01:27:38;;;;;;;;;;;;;;;7.68;87.56;99992.41;5115941;28;19924;-68
2024/02/29 01:30:07;;;;;;;;;;;;;;;7.69;87.49;99983.97;5115998;28;19973;-68
2024/02/29 01:32:36;;;;;;;;;;;;;;;7.70;87.34;99978.06;5116047;28;19977;-68
2024/02/29 01:35:05;;;;;;;;;;;;;;;7.69;86.94;99983.97;5116198;28;20369;-68
2024/02/29 01:37:34;;;;;;;;;;;;;;;7.68;87.91;99984.78;5115577;28;19923;-68
2024/02/29 01:40:04;;;;;;;;;;;;;;;7.76;88.05;99977.28;5115462;28;19927;-68
2024/02/29 01:42:32;;;;;;;;;;;;;;;7.84;88.08;99983.34;5115753;28;20018;-68
2024/02/29 01:45:02;;;;;;;;;;;;;;;7.88;87.38;99980.88;5115803;28;19930;-68
2024/02/29 01:47:31;;;;;;;;;;;;;;;7.87;87.86;99980.88;5115331;28;19924;-67
2024/02/29 01:50:02;;;;;;;;;;;;;;;7.85;87.95;99975.75;5115784;28;19963;-68
2024/02/29 01:52:32;;;;;;;;;;;;;;;7.80;87.99;99982.44;5115659;28;19924;-68
2024/02/29 01:55:02;;;;;;;;;;;;;;;7.79;88.27;99990.91;5114476;28;20452;-68
2024/02/29 01:57:32;;;;;;;;;;;;;;;7.82;87.73;99985.84;5115106;28;19974;-68
2024/02/29 02:00:04;;;;;;;;;;;;;;;7.87;88.23;99989.31;5115409;28;19928;-68
2024/02/29 02:02:34;;;;;;;;;;;;;;;7.90;88.15;99978.34;5115125;28;19927;-68
2024/02/29 02:05:02;;;;;;;;;;;;;;;7.97;88.18;99975.94;5114285;28;19928;-68
2024/02/29 02:07:31;;;;;;;;;;;;;;;8.01;88.27;99975.13;5097122;28;19923;-68
2024/02/29 02:10:00;;;;;;;;;;;;;;;8.04;88.33;99972.63;5115304;28;19930;-68
2024/02/29 02:12:29;;;;;;;;;;;;;;;8.05;88.83;99974.38;5115215;28;19981;-68
2024/02/29 02:14:57;;;;;;;;;;;;;;;8.07;88.42;99976.91;5115682;28;19976;-68
2024/02/29 02:17:27;;;;;;;;;;;;;;;8.05;87.99;99968.41;5115061;28;19947;-68
2024/02/29 02:19:56;;;;;;;;;;;;;;;8.05;88.71;99971.81;5114811;28;19927;-68
2024/02/29 02:22:28;;;;;;;;;;;;;;;8.07;89.04;99967.59;5115375;28;19923;-68
2024/02/29 02:24:57;;;;;;;;;;;;;;;8.09;88.98;99963.38;5114473;28;19924;-68
2024/02/29 02:27:25;;;;;;;;;;;;;;;8.06;89.19;99965.06;5114803;28;19931;-69
2024/02/29 02:29:54;;;;;;;;;;;;;;;8.08;88.60;99955.75;5114953;28;19962;-68
2024/02/29 02:32:22;;;;;;;;;;;;;;;8.13;88.68;99961.75;5114928;28;19990;-68
2024/02/29 02:34:51;;;;;;;;;;;;;;;8.13;89.03;99955.81;5114604;28;20431;-68
2024/02/29 02:37:19;;;;;;;;;;;;;;;8.08;89.16;99954.06;5114729;28;19934;-68
2024/02/29 02:39:49;;;;;;;;;;;;;;;8.05;88.74;99954.03;5114541;28;19924;-68
2024/02/29 02:42:18;;;;;;;;;;;;;;;8.09;88.55;99955.75;5115131;28;19923;-68
2024/02/29 02:44:46;;;;;;;;;;;;;;;8.13;88.93;99955.81;5113556;28;20056;-68
2024/02/29 02:47:15;;;;;;;;;;;;;;;8.16;88.61;99950.78;5114820;28;20385;-68
2024/02/29 02:49:43;;;;;;;;;;;;;;;8.11;88.99;99945.59;5114689;28;19932;-68
2024/02/29 02:52:11;;;;;;;;;;;;;;;8.17;88.76;99952.47;5114660;28;20373;-68
2024/02/29 02:54:40;;;;;;;;;;;;;;;8.18;88.21;99949.09;5114719;28;19978;-68
2024/02/29 02:57:10;;;;;;;;;;;;;;;8.17;88.31;99952.47;5114565;28;19963;-68
2024/02/29 02:59:39;;;;;;;;;;;;;;;8.16;88.61;99945.69;5114431;28;20432;-68
2024/02/29 03:02:07;;;;;;;;;;;;;;;8.18;88.29;99946.56;5114313;28;19928;-67
2024/02/29 03:04:36;;;;;;;;;;;;;;;8.20;89.00;99937.25;5112950;28;19930;-68
2024/02/29 03:07:05;;;;;;;;;;;;;;;8.16;88.61;99940.59;5113353;28;19930;-68
2024/02/29 03:09:34;;;;;;;;;;;;;;;8.15;88.72;99943.97;5114874;28;19953;-68
2024/02/29 03:12:02;;;;;;;;;;;;;;;8.15;88.07;99943.97;5114752;28;20409;-68
2024/02/29 03:14:32;;;;;;;;;;;;;;;8.20;88.32;99942.34;5114252;28;19985;-68
2024/02/29 03:17:01;;;;;;;;;;;;;;;8.21;88.31;99942.34;5117916;28;19931;-68
2024/02/29 03:19:29;;;;;;;;;;;;;;;8.22;88.01;99946.63;5118274;28;20465;-68
2024/02/29 03:21:58;;;;;;;;;;;;;;;8.24;88.21;99941.53;5118127;28;19963;-68
2024/02/29 03:24:26;;;;;;;;;;;;;;;8.25;88.30;99940.72;5118302;28;20410;-68
2024/02/29 03:26:55;;;;;;;;;;;;;;;8.27;88.48;99951.78;5118443;28;19930;-68
2024/02/29 03:29:23;;;;;;;;;;;;;;;8.29;88.29;99942.50;5118494;28;19924;-68
2024/02/29 03:31:53;;;;;;;;;;;;;;;8.32;87.63;99942.53;5117891;28;19931;-68
2024/02/29 03:34:22;;;;;;;;;;;;;;;8.29;87.97;99945.03;5118077;28;19928;-68
2024/02/29 03:36:50;;;;;;;;;;;;;;;8.26;88.53;99947.50;5118501;28;20357;-68
2024/02/29 03:39:19;;;;;;;;;;;;;;;8.28;88.09;99940.81;5116671;28;19973;-68
2024/02/29 03:41:47;;;;;;;;;;;;;;;8.30;88.43;99944.22;5117757;28;20373;-68
2024/02/29 03:44:16;;;;;;;;;;;;;;;8.29;87.99;99945.03;5118354;28;19935;-68
2024/02/29 03:46:44;;;;;;;;;;;;;;;8.30;88.73;99945.03;5117886;28;20286;-68
2024/02/29 03:49:14;;;;;;;;;;;;;;;8.32;88.69;99932.38;5118040;28;19928;-68
2024/02/29 03:51:43;;;;;;;;;;;;;;;8.30;88.55;99939.13;5116743;28;20441;-68
2024/02/29 03:54:11;;;;;;;;;;;;;;;8.26;88.71;99935.69;5118131;28;19923;-68
2024/02/29 03:56:40;;;;;;;;;;;;;;;8.28;88.39;99931.47;5117842;28;20423;-68
2024/02/29 03:59:08;;;;;;;;;;;;;;;8.30;88.66;99936.59;5117655;28;20259;-68
2024/02/29 04:01:37;;;;;;;;;;;;;;;8.27;88.81;99939.94;5118236;28;19974;-67
2024/02/29 04:04:06;;;;;;;;;;;;;;;8.26;88.46;99932.25;5117593;28;20034;-68
2024/02/29 04:06:36;;;;;;;;;;;;;;;8.26;88.51;99934.78;5117334;28;19924;-68
2024/02/29 04:09:04;;;;;;;;;;;;;;;8.31;88.97;99930.66;5117891;28;19931;-68
2024/02/29 04:11:32;;;;;;;;;;;;;;;8.36;88.99;99939.19;5116384;28;19928;-68
2024/02/29 04:14:01;;;;;;;;;;;;;;;8.36;88.67;99937.50;5117068;28;19931;-68
2024/02/29 04:16:29;;;;;;;;;;;;;;;8.39;88.65;99939.22;5116275;28;19980;-67
2024/02/29 04:18:58;;;;;;;;;;;;;;;8.39;88.67;99941.78;5117482;28;19969;-68
2024/02/29 04:21:26;;;;;;;;;;;;;;;8.37;88.90;99935.81;5117015;28;19973;-68
2024/02/29 04:23:56;;;;;;;;;;;;;;;8.34;88.66;99934.09;5117249;28;20366;-68
2024/02/29 04:26:25;;;;;;;;;;;;;;;8.36;88.55;99929.00;5117059;28;19980;-68
2024/02/29 04:28:53;;;;;;;;;;;;;;;8.36;88.90;99934.09;5115047;28;19923;-68
2024/02/29 04:31:22;;;;;;;;;;;;;;;8.36;88.92;99936.66;5117222;28;19924;-68
2024/02/29 04:33:50;;;;;;;;;;;;;;;8.35;89.26;99927.31;5117257;28;19931;-68
2024/02/29 04:36:20;;;;;;;;;;;;;;;8.35;89.15;99933.25;5117159;27;19954;-67
2024/02/29 04:38:49;;;;;;;;;;;;;;;8.38;89.21;99927.34;5116844;28;19970;-68
2024/02/29 04:41:19;;;;;;;;;;;;;;;8.38;89.59;99932.44;5115851;28;19924;-67
2024/02/29 04:43:48;;;;;;;;;;;;;;;8.35;89.74;99932.41;5115842;28;19974;-68
2024/02/29 04:46:17;;;;;;;;;;;;;;;8.38;89.59;99928.19;5116767;28;19927;-68
2024/02/29 04:48:45;;;;;;;;;;;;;;;8.41;89.70;99932.47;5115594;28;19931;-68
2024/02/29 04:51:14;;;;;;;;;;;;;;;8.44;89.58;99932.50;5115587;28;19930;-68
2024/02/29 04:53:42;;;;;;;;;;;;;;;8.41;89.40;99938.41;5116744;28;19924;-68
2024/02/29 04:56:11;;;;;;;;;;;;;;;8.44;89.20;99937.59;5115309;28;19924;-68
2024/02/29 04:58:40;;;;;;;;;;;;;;;8.46;89.92;99935.94;5116342;28;19924;-68
2024/02/29 05:01:10;;;;;;;;;;;;;;;8.50;89.70;99932.56;5116755;27;19970;-68
2024/02/29 05:03:39;;;;;;;;;;;;;;;8.55;90.00;99934.34;5097591;28;20361;-68
2024/02/29 05:06:13;;;;;;;;;;;;;;;8.57;90.16;99935.19;5116362;28;19950;-68
2024/02/29 05:08:42;;;;;;;;;;;;;;;8.60;90.33;99934.38;5115372;28;20365;-68
2024/02/29 05:11:11;;;;;;;;;;;;;;;8.59;90.24;99932.69;5116424;28;19924;-68
2024/02/29 05:13:41;;;;;;;;;;;;;;;8.56;89.79;99933.53;5115086;28;20357;-68
2024/02/29 05:16:09;;;;;;;;;;;;;;;8.58;90.28;99930.97;5115960;28;20400;-68
2024/02/29 05:18:38;;;;;;;;;;;;;;;8.62;89.55;99932.72;5115772;28;20370;-68
2024/02/29 05:21:06;;;;;;;;;;;;;;;8.63;90.18;99929.34;5116265;28;19947;-68
2024/02/29 05:23:35;;;;;;;;;;;;;;;8.65;90.40;99928.53;5114940;28;19946;-68
2024/02/29 05:26:04;;;;;;;;;;;;;;;8.64;90.24;99936.13;5115529;28;20435;-68
2024/02/29 05:28:33;;;;;;;;;;;;;;;8.63;89.72;99929.34;5115488;28;19928;-68
2024/02/29 05:31:04;;;;;;;;;;;;;;;8.63;90.25;99934.44;5116361;28;19927;-68
2024/02/29 05:33:32;;;;;;;;;;;;;;;8.62;90.01;99932.72;5116281;28;19974;-68
2024/02/29 05:36:01;;;;;;;;;;;;;;;8.60;90.45;99926.75;5114738;28;19930;-68
2024/02/29 05:38:30;;;;;;;;;;;;;;;8.61;90.36;99928.47;5115673;28;19924;-68
2024/02/29 05:40:58;;;;;;;;;;;;;;;8.62;90.26;99922.53;5114546;28;19931;-68
2024/02/29 05:43:27;;;;;;;;;;;;;;;8.61;90.12;99920.84;5115218;28;19927;-68
2024/02/29 05:45:57;;;;;;;;;;;;;;;8.62;90.58;99928.47;5115699;28;19928;-68
2024/02/29 05:48:27;;;;;;;;;;;;;;;8.66;90.44;99924.28;5115314;28;19924;-68
2024/02/29 05:50:56;;;;;;;;;;;;;;;8.67;90.33;99928.53;5115324;28;19928;-68
2024/02/29 05:53:25;;;;;;;;;;;;;;;8.67;90.08;99931.94;5114411;28;19924;-68
2024/02/29 05:55:54;;;;;;;;;;;;;;;8.68;90.51;99927.72;5115556;28;19930;-67
2024/02/29 05:58:22;;;;;;;;;;;;;;;8.71;90.68;99937.88;5115334;28;19946;-68
2024/02/29 06:00:51;;;;;;;;;;;;;;;8.74;90.27;99927.75;5114456;28;19927;-68
2024/02/29 06:03:19;;;;;;;;;;;;;;;8.77;90.16;99930.34;5115615;28;19924;-68
2024/02/29 06:05:49;;;;;;;;;;;;;;;8.77;90.54;99932.88;5115293;28;20339;-67
2024/02/29 06:08:17;;;;;;;;;;;;;;;8.80;90.41;99932.06;5115587;28;19924;-68
2024/02/29 06:10:47;;;;;;;;;;;;;;;8.82;90.69;99931.25;5114931;28;19973;-68
2024/02/29 06:13:15;;;;;;;;;;;;;;;8.84;90.25;99929.56;5115225;28;20358;-68
2024/02/29 06:15:44;;;;;;;;;;;;;;;8.89;90.49;99927.91;5115062;28;19924;-68
2024/02/29 06:18:13;;;;;;;;;;;;;;;8.94;90.67;99925.41;5114723;28;20377;-68
2024/02/29 06:20:41;;;;;;;;;;;;;;;8.96;91.07;99922.03;5113888;28;19973;-68
2024/02/29 06:23:11;;;;;;;;;;;;;;;9.00;90.88;99922.94;5114771;28;19924;-68
2024/02/29 06:25:42;;;;;;;;;;;;;;;9.06;90.58;99921.31;5114763;28;19930;-68
2024/02/29 06:28:10;;;;;;;;;;;;;;;9.11;90.49;99927.28;5115056;28;20420;-68
2024/02/29 06:30:39;;;;;;;;;;;;;;;9.15;90.95;99921.38;5114739;28;19930;-68
2024/02/29 06:33:08;;;;;;;;;;;;;;;9.19;90.59;99914.63;5115034;28;19923;-68
2024/02/29 06:35:36;;;;;;;;;;;;;;;9.23;90.74;99929.94;5114885;28;19923;-68
2024/02/29 06:38:05;;;;;;;;;;;;;;;9.29;90.50;99940.16;5113272;28;19924;-68
2024/02/29 06:40:35;;;;;;;;;;;;;;;9.34;90.89;99928.31;5114381;28;19928;-68
2024/02/29 06:43:04;;;;;;;;;;;;;;;9.41;90.52;99924.13;5114798;28;19924;-68
2024/02/29 06:45:33;;;;;;;;;;;;;;;9.43;90.53;99924.97;5114689;28;19934;-68
2024/02/29 06:48:03;;;;;;;;;;;;;;;9.45;90.75;99926.72;5114681;28;19923;-68
2024/02/29 06:50:32;;;;;;;;;;;;;;;9.51;90.73;99927.59;5112958;28;19930;-68
2024/02/29 06:53:00;;;;;;;;;;;;;;;9.63;90.25;99922.59;5113499;28;19923;-68
2024/02/29 06:55:29;;;;;;;;;;;;;;;9.73;90.65;99917.56;5113606;28;19949;-67
2024/02/29 06:57:59;;;;;;;;;;;;;;;9.82;90.60;99911.66;5114626;28;19973;-68
2024/02/29 07:00:27;;;;;;;;;;;;;;;9.93;90.60;99915.97;5114475;28;20034;-68
2024/02/29 07:02:56;;;;;;;;;;;;;;;9.97;90.44;99917.72;5096401;28;19923;-67
2024/02/29 07:05:26;;;;;;;;;;;;;;;10.05;90.21;99916.03;5114106;28;19924;-68
2024/02/29 07:07:55;;;;;;;;;;;;;;;10.13;89.66;99921.22;5113211;28;20378;-68
2024/02/29 07:10:23;;;;;;;;;;;;;;;10.16;89.76;99918.69;5113782;28;19928;-67
2024/02/29 07:12:52;;;;;;;;;;;;;;;10.25;89.59;99918.72;5114305;28;20508;-68
2024/02/29 07:15:22;;;;;;;;;;;;;;;10.32;89.29;99927.28;5114146;28;19924;-68
2024/02/29 07:17:50;;;;;;;;;;;;;;;10.44;88.99;99925.59;5114372;28;19924;-68
2024/02/29 07:20:19;;;;;;;;;;;;;;;10.50;88.74;99920.53;5114511;28;19928;-68
2024/02/29 07:22:48;;;;;;;;;;;;;;;10.51;88.27;99922.22;5112134;28;19946;-67
2024/02/29 07:25:16;;;;;;;;;;;;;;;10.52;88.11;99915.44;5114052;28;19923;-67
2024/02/29 07:27:46;;;;;;;;;;;;;;;10.56;88.05;99910.34;5113254;28;20023;-67
2024/02/29 07:30:15;;;;;;;;;;;;;;;10.54;87.42;99912.03;5114517;28;19924;-67
2024/02/29 07:32:45;;;;;;;;;;;;;;;10.56;87.34;99920.53;5113212;28;19938;-67
2024/02/29 07:35:17;;;;;;;;;;;;;;;10.60;87.25;99916.31;5114281;28;19928;-67
2024/02/29 07:37:46;;;;;;;;;;;;;;;10.61;86.55;99912.91;5113154;28;19931;-67
2024/02/29 07:40:14;;;;;;;;;;;;;;;10.59;86.83;99915.47;5112625;28;19924;-67
2024/02/29 07:42:43;;;;;;;;;;;;;;;10.66;86.72;99914.63;5114155;28;19927;-67
2024/02/29 07:45:12;;;;;;;;;;;;;;;10.73;86.62;99913.78;5113794;28;20285;-67
2024/02/29 07:47:42;;;;;;;;;;;;;;;10.85;86.48;99918.06;5113216;28;19928;-67
2024/02/29 07:50:12;;;;;;;;;;;;;;;10.99;86.33;99910.44;5113725;28;19969;-67
2024/02/29 07:52:40;;;;;;;;;;;;;;;11.07;85.95;99909.59;5113852;28;19927;-67
2024/02/29 07:55:10;;;;;;;;;;;;;;;11.15;85.79;99907.03;5113792;28;20340;-67
2024/02/29 07:57:39;;;;;;;;;;;;;;;11.33;85.77;99896.81;5113839;28;19924;-67
2024/02/29 08:00:10;;;;;;;;;;;;;;;11.39;85.31;99901.94;5112870;28;19923;-68
2024/02/29 08:02:42;;;;;;;;;;;;;;;11.56;85.15;99900.22;5114447;28;19946;-68
2024/02/29 08:05:12;;;;;;;;;;;;;;;11.60;84.56;99896.81;5117314;28;19961;-67
2024/02/29 08:07:40;;;;;;;;;;;;;;;11.71;84.78;99889.16;5116141;28;20294;-68
2024/02/29 08:10:15;;;;;;;;;;;;;;;11.83;84.19;99884.00;5117187;28;19931;-68
2024/02/29 08:12:44;;;;;;;;;;;;;;;11.92;84.13;99889.09;5117700;28;19928;-68
2024/02/29 08:15:13;;;;;;;;;;;;;;;12.04;83.84;99900.13;5117154;28;20381;-68
2024/02/29 08:17:41;;;;;;;;;;;;;;;12.13;83.45;99893.28;5117239;28;20381;-68
2024/02/29 08:20:10;;;;;;;;;;;;;;;12.25;83.31;99883.84;5116007;28;20030;-68
2024/02/29 08:22:40;;;;;;;;;;;;;;;12.40;82.91;99878.69;5116953;28;20408;-68
2024/02/29 08:25:09;;;;;;;;;;;;;;;12.47;82.53;99884.59;5116674;28;20014;-69
2024/02/29 08:27:38;;;;;;;;;;;;;;;12.53;82.42;99875.19;5117086;28;19924;-70
2024/02/29 08:30:07;;;;;;;;;;;;;;;12.58;81.87;99873.44;5117147;28;20430;-68
2024/02/29 08:32:35;;;;;;;;;;;;;;;12.61;81.40;99877.69;5117246;28;20396;-69
2024/02/29 08:35:04;;;;;;;;;;;;;;;12.66;81.37;99876.81;5115815;28;20373;-68
2024/02/29 08:37:32;;;;;;;;;;;;;;;12.73;81.12;99875.06;5115842;28;19998;-69
2024/02/29 08:40:04;;;;;;;;;;;;;;;12.78;80.53;99876.75;5117172;28;19923;-69
2024/02/29 08:42:34;;;;;;;;;;;;;;;12.75;80.26;99871.63;5117024;28;20018;-68
2024/02/29 08:45:03;;;;;;;;;;;;;;;12.75;80.07;99868.22;5116432;28;19930;-68
2024/02/29 08:47:31;;;;;;;;;;;;;;;12.75;79.64;99866.50;5117169;28;19931;-69
2024/02/29 08:49:59;;;;;;;;;;;;;;;12.85;80.00;99874.13;5116975;28;19924;-69
2024/02/29 08:52:30;;;;;;;;;;;;;;;13.01;80.17;99862.91;5116544;28;20014;-68
2024/02/29 08:55:02;;;;;;;;;;;;;;;13.23;80.01;99854.22;5116493;28;19924;-69
2024/02/29 08:57:36;;;;;;;;;;;;;;;13.41;79.62;99854.91;5116970;28;19931;-70
2024/02/29 09:00:06;;;;;;;;;;;;;;;13.42;78.88;99859.16;5116513;28;19974;-67
2024/02/29 09:02:35;;;;;;;;;;;;;;;13.38;78.64;99854.94;5116488;28;20022;-68
2024/02/29 09:05:04;;;;;;;;;;;;;;;13.48;78.36;99854.84;5116269;28;20293;-68
2024/02/29 09:07:32;;;;;;;;;;;;;;;13.55;78.30;99851.34;5116209;28;19924;-69
2024/02/29 09:10:01;;;;;;;;;;;;;;;13.62;77.68;99855.56;5116127;28;19928;-68
2024/02/29 09:12:29;;;;;;;;;;;;;;;13.71;77.58;99858.03;5115452;28;19970;-68
2024/02/29 09:15:01;;;;;;;;;;;;;;;13.80;77.17;99863.06;5115868;28;19924;-68
2024/02/29 09:17:30;;;;;;;;;;;;;;;13.79;76.89;99861.38;5116048;28;20377;-68
2024/02/29 09:19:58;;;;;;;;;;;;;;;13.86;76.52;99857.88;5114854;28;19924;-68
2024/02/29 09:22:27;;;;;;;;;;;;;;;14.03;76.40;99855.97;5115681;28;19981;-68
2024/02/29 09:24:56;;;;;;;;;;;;;;;14.30;76.81;99855.63;5115393;28;20281;-68
2024/02/29 09:27:24;;;;;;;;;;;;;;;14.36;76.26;99847.00;5115207;28;19930;-68
2024/02/29 09:29:52;;;;;;;;;;;;;;;14.28;75.20;99843.66;5115937;28;19928;-68
2024/02/29 09:32:25;;;;;;;;;;;;;;;14.37;75.31;99841.84;5116041;28;19923;-68
2024/02/29 09:34:54;;;;;;;;;;;;;;;14.50;74.71;99840.81;5114928;28;19930;-68
2024/02/29 09:37:22;;;;;;;;;;;;;;;14.54;74.23;99837.31;5115880;28;19924;-69
2024/02/29 09:39:51;;;;;;;;;;;;;;;14.61;73.32;99841.50;5114529;28;19951;-69
2024/02/29 09:42:19;;;;;;;;;;;;;;;14.63;72.65;99839.78;5115258;28;19931;-68
2024/02/29 09:44:50;;;;;;;;;;;;;;;14.69;72.89;99834.53;5115695;28;19927;-68
2024/02/29 09:47:20;;;;;;;;;;;;;;;14.95;72.83;99825.59;5115706;28;19992;-68
2024/02/29 09:49:51;;;;;;;;;;;;;;;15.19;73.01;99830.31;5116115;28;19928;-69
2024/02/29 09:52:30;;;;;;;;;;;;;;;15.33;72.19;99828.38;5115557;28;19966;-70
2024/02/29 09:55:03;;;;;;;;;;;;;;;15.39;71.61;99823.97;5114998;28;19947;-70
2024/02/29 09:57:33;;;;;;;;;;;;;;;15.54;71.43;99830.59;5114121;28;20442;-68
2024/02/29 10:00:02;;;;;;;;;;;;;;;15.52;70.88;99824.63;5114957;28;19977;-67
2024/02/29 10:02:32;;;;;;;;;;;;;;;15.72;70.64;99832.78;5113755;28;19972;-68
2024/02/29 10:05:02;;;;;;;;;;;;;;;15.93;70.54;99827.22;5115393;28;19973;-69
2024/02/29 10:07:31;;;;;;;;;;;;;;;16.06;70.10;99823.53;5114719;28;20531;-69
2024/02/29 10:10:00;;;;;;;;;;;;;;;16.18;69.49;99826.72;5113951;28;19924;-67
2024/02/29 10:12:28;;;;;;;;;;;;;;;16.16;67.99;99823.34;5114867;28;20031;-68
2024/02/29 10:14:59;;;;;;;;;;;;;;;16.22;68.72;99825.81;5115176;28;19927;-69
2024/02/29 10:17:27;;;;;;;;;;;;;;;16.30;68.38;99823.88;5115590;28;19934;-68
2024/02/29 10:19:56;;;;;;;;;;;;;;;16.31;67.88;99823.03;5113902;28;19931;-68
2024/02/29 10:22:27;;;;;;;;;;;;;;;16.24;67.58;99816.31;5113625;28;19930;-68
2024/02/29 10:24:56;;;;;;;;;;;;;;;16.14;66.88;99827.69;5113801;28;19977;-67
2024/02/29 10:27:24;;;;;;;;;;;;;;;16.24;67.45;99811.16;5114721;28;19923;-67
2024/02/29 10:29:53;;;;;;;;;;;;;;;16.31;67.67;99813.56;5114562;28;19971;-67
2024/02/29 10:32:21;;;;;;;;;;;;;;;16.43;67.13;99805.56;5114914;28;19931;-68
2024/02/29 10:34:49;;;;;;;;;;;;;;;16.56;67.22;99803.56;5113850;28;20347;-68
2024/02/29 10:37:18;;;;;;;;;;;;;;;16.46;67.27;99795.19;5112727;28;20300;-68
2024/02/29 10:39:48;;;;;;;;;;;;;;;16.52;67.38;99792.50;5113600;28;20028;-68
2024/02/29 10:42:20;;;;;;;;;;;;;;;16.64;66.95;99781.06;5115192;28;19978;-68
2024/02/29 10:44:51;;;;;;;;;;;;;;;16.66;66.16;99775.00;5114878;28;19931;-68
2024/02/29 10:47:20;;;;;;;;;;;;;;;16.85;66.71;99777.09;5113943;28;19959;-68
2024/02/29 10:49:53;;;;;;;;;;;;;;;16.99;66.32;99772.47;5113406;28;19930;-68
2024/02/29 10:52:26;;;;;;;;;;;;;;;17.10;65.90;99766.16;5114734;28;19931;-69
2024/02/29 10:54:59;;;;;;;;;;;;;;;17.12;64.34;99764.38;5114733;28;19931;-69
2024/02/29 10:57:33;;;;;;;;;;;;;;;17.14;64.42;99757.44;5114618;28;19928;-68
2024/02/29 11:00:02;;;;;;;;;;;;;;;17.26;64.13;99757.13;5114382;28;19938;-68
2024/02/29 11:02:31;;;;;;;;;;;;;;;17.38;64.41;99761.97;5114236;28;19923;-68
2024/02/29 11:04:59;;;;;;;;;;;;;;;17.50;64.26;99745.28;5114430;28;19924;-68
2024/02/29 11:07:28;;;;;;;;;;;;;;;17.59;63.99;99747.63;5113295;28;20014;-68
2024/02/29 11:09:59;;;;;;;;;;;;;;;17.66;63.85;99740.59;5113091;28;20026;-68
2024/02/29 11:12:28;;;;;;;;;;;;;;;17.75;63.36;99732.56;5114256;28;19977;-68
2024/02/29 11:14:57;;;;;;;;;;;;;;;17.85;63.30;99736.59;5114735;28;19924;-68
2024/02/29 11:17:28;;;;;;;;;;;;;;;17.80;62.68;99733.28;5114513;28;19966;-68
2024/02/29 11:20:03;;;;;;;;;;;;;;;17.85;62.07;99731.41;5114096;28;20293;-68
2024/02/29 11:22:32;;;;;;;;;;;;;;;17.96;61.48;99729.34;5114450;28;19924;-68
2024/02/29 11:25:09;;;;;;;;;;;;;;;18.02;61.61;99731.75;5114112;28;19928;-67
2024/02/29 11:27:46;;;;;;;;;;;;;;;18.09;61.36;99725.53;5114215;28;20358;-67
2024/02/29 11:30:18;;;;;;;;;;;;;;;18.24;61.42;99724.19;5114313;28;19924;-68
2024/02/29 11:32:46;;;;;;;;;;;;;;;18.38;61.95;99714.28;5114319;28;19924;-68
2024/02/29 11:35:15;;;;;;;;;;;;;;;18.41;61.29;99712.44;5114552;28;20377;-67
2024/02/29 11:37:44;;;;;;;;;;;;;;;18.42;60.94;99705.53;5116416;28;19931;-67
2024/02/29 11:40:16;;;;;;;;;;;;;;;18.32;60.29;99702.41;5118606;28;19931;-68
2024/02/29 11:42:44;;;;;;;;;;;;;;;18.45;59.80;99703.66;5118243;28;20008;-67
2024/02/29 11:45:20;;;;;;;;;;;;;;;18.50;58.89;99696.66;5118163;28;19924;-67
2024/02/29 11:47:48;;;;;;;;;;;;;;;18.57;58.84;99698.13;5118085;28;19923;-68
2024/02/29 11:50:18;;;;;;;;;;;;;;;18.65;58.18;99691.00;5118161;28;19924;-67
2024/02/29 11:52:46;;;;;;;;;;;;;;;18.77;56.77;99683.69;5118565;28;19924;-68
2024/02/29 11:55:16;;;;;;;;;;;;;;;18.73;55.20;99686.41;5117553;28;19931;-68
2024/02/29 11:57:48;;;;;;;;;;;;;;;18.73;54.31;99683.81;5118122;28;19931;-68
2024/02/29 12:00:16;;;;;;;;;;;;;;;18.79;54.62;99681.94;5118121;28;19930;-67
2024/02/29 12:02:45;;;;;;;;;;;;;;;18.78;55.59;99680.22;5117512;28;19924;-67
2024/02/29 12:05:14;;;;;;;;;;;;;;;18.62;56.58;99680.75;5099514;28;19927;-67
2024/02/29 12:07:45;;;;;;;;;;;;;;;18.50;58.00;99678.56;5117770;27;20362;-67
2024/02/29 12:10:14;;;;;;;;;;;;;;;18.52;57.69;99669.00;5117644;28;20289;-68
2024/02/29 12:12:44;;;;;;;;;;;;;;;18.66;58.00;99677.19;5117481;28;20313;-67
2024/02/29 12:15:13;;;;;;;;;;;;;;;18.59;57.01;99675.69;5116249;28;19924;-69
2024/02/29 12:17:43;;;;;;;;;;;;;;;18.63;57.57;99674.69;5117806;27;20305;-67
2024/02/29 12:20:16;;;;;;;;;;;;;;;18.61;56.96;99668.72;5116328;28;19930;-66
2024/02/29 12:22:48;;;;;;;;;;;;;;;18.61;56.30;99671.31;5115738;28;20443;-67
2024/02/29 12:25:17;;;;;;;;;;;;;;;18.66;56.74;99664.25;5115772;28;19924;-68
2024/02/29 12:27:47;;;;;;;;;;;;;;;18.77;56.44;99652.66;5115853;28;19923;-67
2024/02/29 12:30:16;;;;;;;;;;;;;;;18.82;54.34;99661.13;5116334;28;19923;-66
2024/02/29 12:32:44;;;;;;;;;;;;;;;18.73;54.12;99663.13;5116889;28;20266;-67
2024/02/29 12:35:13;;;;;;;;;;;;;;;18.57;54.89;99661.13;5117318;28;20281;-68
2024/02/29 12:37:43;;;;;;;;;;;;;;;18.44;55.68;99655.47;5115849;28;19972;-66
2024/02/29 12:40:13;;;;;;;;;;;;;;;18.39;56.21;99656.50;5116096;28;19924;-66
2024/02/29 12:42:42;;;;;;;;;;;;;;;18.46;56.72;99648.53;5116617;28;20022;-67
2024/02/29 12:45:12;;;;;;;;;;;;;;;18.52;56.46;99642.34;5116686;28;19924;-68
2024/02/29 12:47:46;;;;;;;;;;;;;;;18.50;56.71;99633.78;5116921;28;19924;-67
2024/02/29 12:50:14;;;;;;;;;;;;;;;18.56;57.05;99644.75;5116026;28;19969;-67
2024/02/29 12:52:43;;;;;;;;;;;;;;;18.53;55.74;99638.84;5115627;28;20050;-67
2024/02/29 12:55:12;;;;;;;;;;;;;;;18.58;55.81;99631.78;5116809;28;20293;-67
2024/02/29 12:57:40;;;;;;;;;;;;;;;18.55;55.22;99627.56;5116434;28;19924;-67
2024/02/29 13:00:11;;;;;;;;;;;;;;;18.63;54.03;99628.16;5116126;28;19963;-68
2024/02/29 13:02:41;;;;;;;;;;;;;;;18.84;52.56;99631.72;5116589;28;20391;-67